createdAt,value
2019-01-10T00:00:14.231Z,4.43
2019-01-10T00:02:42.819Z,3.80
2019-01-10T00:05:12.071Z,3.63
2019-01-10T00:07:40.520Z,3.97
2019-01-10T00:10:13.956Z,4.10
2019-01-10T00:12:42.424Z,3.80
2019-01-10T00:15:13.855Z,4.23
2019-01-10T00:17:42.224Z,4.13
2019-01-10T00:20:12.918Z,3.90
2019-01-10T00:22:41.411Z,4.07
2019-01-10T00:25:11.684Z,3.77
2019-01-10T00:27:40.070Z,4.90
2019-01-10T00:30:23.301Z,4.40
2019-01-10T00:32:51.679Z,4.60
2019-01-10T00:35:20.100Z,4.50
2019-01-10T00:37:50.387Z,4.67
2019-01-10T00:40:19.313Z,4.27
2019-01-10T00:42:49.859Z,4.13
2019-01-10T00:45:18.506Z,4.53
2019-01-10T00:47:47.440Z,3.67
2019-01-10T00:50:20.923Z,4.73
2019-01-10T00:52:49.321Z,4.50
2019-01-10T00:55:17.775Z,4.40
2019-01-10T00:57:46.219Z,4.50
2019-01-10T01:00:23.149Z,5.03
2019-01-10T01:02:51.931Z,3.63
2019-01-10T01:05:21.021Z,3.90
2019-01-10T01:07:49.493Z,4.13
2019-01-10T01:10:26.036Z,4.60
2019-01-10T01:12:58.752Z,4.40
2019-01-10T01:15:24.946Z,4.17
2019-01-10T01:17:53.699Z,4.20
2019-01-10T01:20:23.802Z,4.53
2019-01-10T01:22:52.458Z,3.83
2019-01-10T01:25:20.903Z,4.63
2019-01-10T01:27:49.375Z,4.43
2019-01-10T01:30:20.279Z,4.23
2019-01-10T01:32:48.765Z,4.40
2019-01-10T01:35:17.289Z,4.63
2019-01-10T01:37:45.949Z,4.87
2019-01-10T01:40:16.912Z,5.10
2019-01-10T01:42:45.415Z,4.70
2019-01-10T01:45:16.430Z,4.87
2019-01-10T01:47:44.948Z,4.53
2019-01-10T01:50:24.322Z,4.47
2019-01-10T01:52:53.625Z,4.70
2019-01-10T01:55:22.231Z,4.70
2019-01-10T01:57:51.679Z,4.80
2019-01-10T02:00:22.481Z,4.40
2019-01-10T02:02:50.920Z,4.63
2019-01-10T02:05:19.630Z,4.53
2019-01-10T02:07:48.117Z,4.93
2019-01-10T02:10:24.927Z,4.03
2019-01-10T02:12:53.332Z,4.60
2019-01-10T02:15:21.742Z,4.20
2019-01-10T02:17:50.245Z,4.57
2019-01-10T02:20:18.762Z,4.57
2019-01-10T02:22:47.137Z,4.10
2019-01-10T02:25:16.868Z,4.43
2019-01-10T02:27:45.363Z,4.43
2019-01-10T02:30:20.034Z,4.57
2019-01-10T02:32:48.472Z,5.00
2019-01-10T02:35:17.191Z,4.37
2019-01-10T02:37:46.004Z,5.10
2019-01-10T02:40:15.512Z,4.77
2019-01-10T02:42:43.996Z,4.60
2019-01-10T02:45:16.588Z,5.00
2019-01-10T02:47:45.175Z,4.50
2019-01-10T02:50:16.600Z,4.33
2019-01-10T02:52:47.861Z,4.70
2019-01-10T02:55:16.614Z,4.80
2019-01-10T02:57:45.209Z,4.90
2019-01-10T03:00:19.006Z,5.13
2019-01-10T03:02:47.714Z,4.77
2019-01-10T03:05:16.071Z,4.90
2019-01-10T03:07:44.447Z,4.37
2019-01-10T03:10:16.168Z,4.47
2019-01-10T03:12:44.535Z,4.60
2019-01-10T03:15:12.961Z,4.70
2019-01-10T03:17:41.339Z,4.87
2019-01-10T03:20:18.842Z,5.27
2019-01-10T03:22:47.228Z,5.23
2019-01-10T03:25:15.594Z,5.03
2019-01-10T03:27:44.050Z,5.00
2019-01-10T03:30:19.505Z,5.10
2019-01-10T03:32:48.022Z,5.17
2019-01-10T03:35:16.458Z,5.60
2019-01-10T03:37:44.846Z,5.23
2019-01-10T03:40:15.853Z,5.63
2019-01-10T03:42:44.473Z,5.53
2019-01-10T03:45:15.177Z,5.17
2019-01-10T03:47:43.549Z,5.63
2019-01-10T03:50:13.977Z,5.37
2019-01-10T03:52:42.369Z,6.13
2019-01-10T03:55:10.882Z,5.57
2019-01-10T03:57:39.261Z,5.87
2019-01-10T04:00:23.092Z,6.00
2019-01-10T04:02:51.499Z,6.03
2019-01-10T04:05:20.260Z,5.97
2019-01-10T04:07:48.629Z,5.83
2019-01-10T04:10:18.041Z,6.30
2019-01-10T04:12:46.507Z,6.00
2019-01-10T04:15:16.832Z,5.77
2019-01-10T04:17:45.215Z,5.33
2019-01-10T04:20:17.778Z,6.00
2019-01-10T04:22:46.159Z,6.03
2019-01-10T04:25:14.922Z,5.77
2019-01-10T04:27:43.324Z,5.83
2019-01-10T04:30:14.530Z,5.57
2019-01-10T04:32:42.905Z,5.40
2019-01-10T04:35:11.339Z,5.77
2019-01-10T04:37:39.721Z,5.67
2019-01-10T04:40:11.399Z,5.97
2019-01-10T04:42:39.778Z,5.70
2019-01-10T04:45:08.883Z,5.47
2019-01-10T04:47:37.275Z,5.70
2019-01-10T04:50:08.554Z,5.57
2019-01-10T04:52:36.931Z,5.70
2019-01-10T04:55:06.344Z,5.57
2019-01-10T04:57:34.749Z,6.03
2019-01-10T05:00:04.675Z,5.90
2019-01-10T05:02:33.046Z,5.93
2019-01-10T05:05:03.017Z,5.53
2019-01-10T05:07:31.370Z,6.20
2019-01-10T05:09:59.902Z,5.67
2019-01-10T05:12:28.278Z,6.30
2019-01-10T05:14:56.653Z,6.20
2019-01-10T05:17:25.038Z,5.70
2019-01-10T05:19:53.424Z,5.90
2019-01-10T05:22:22.799Z,5.73
2019-01-10T05:24:51.168Z,6.00
2019-01-10T05:27:19.539Z,6.60
2019-01-10T05:29:47.916Z,5.67
2019-01-10T05:32:17.239Z,5.97
2019-01-10T05:34:45.867Z,5.40
2019-01-10T05:37:14.240Z,5.10
2019-01-10T05:39:47.720Z,5.37
2019-01-10T05:42:13.623Z,5.60
2019-01-10T05:44:42.098Z,5.77
2019-01-10T05:47:10.466Z,5.40
2019-01-10T05:49:38.840Z,6.33
2019-01-10T05:52:07.217Z,5.53
2019-01-10T05:54:35.587Z,5.60
2019-01-10T05:57:03.955Z,5.43
2019-01-10T05:59:32.335Z,5.37
2019-01-10T06:02:00.715Z,5.67
2019-01-10T06:04:29.091Z,5.30
2019-01-10T06:06:57.456Z,4.73
2019-01-10T06:09:25.833Z,4.97
2019-01-10T06:11:54.447Z,5.40
2019-01-10T06:14:22.806Z,4.60
2019-01-10T06:16:52.174Z,5.90
2019-01-10T06:19:26.687Z,5.47
2019-01-10T06:21:51.713Z,5.33
2019-01-10T06:24:20.337Z,5.57
2019-01-10T06:26:48.714Z,6.20
2019-01-10T06:29:17.089Z,5.70
2019-01-10T06:31:46.415Z,6.37
2019-01-10T06:34:14.791Z,5.73
2019-01-10T06:36:43.159Z,6.40
2019-01-10T06:39:11.536Z,5.50
2019-01-10T06:41:39.916Z,6.30
2019-01-10T06:44:08.294Z,6.13
2019-01-10T06:46:36.672Z,6.03
2019-01-10T06:49:05.043Z,5.73
2019-01-10T06:51:33.423Z,6.10
2019-01-10T06:54:01.794Z,6.10
2019-01-10T06:56:30.175Z,6.53
2019-01-10T06:58:58.547Z,6.03
2019-01-10T07:01:27.157Z,6.10
2019-01-10T07:03:55.533Z,6.13
2019-01-10T07:06:23.913Z,6.30
2019-01-10T07:08:52.292Z,6.40
2019-01-10T07:11:20.963Z,6.50
2019-01-10T07:13:49.336Z,6.13
2019-01-10T07:16:17.726Z,6.30
2019-01-10T07:18:46.101Z,5.93
2019-01-10T07:21:14.483Z,6.57
2019-01-10T07:23:44.972Z,7.00
2019-01-10T07:26:14.400Z,6.83
2019-01-10T07:28:42.872Z,6.63
2019-01-10T07:31:29.390Z,6.80
2019-01-10T07:34:01.564Z,6.37
2019-01-10T07:36:29.948Z,6.73
2019-01-10T07:38:58.401Z,7.03
2019-01-10T07:41:26.779Z,7.00
2019-01-10T07:43:55.156Z,6.80
2019-01-10T07:46:23.528Z,7.13
2019-01-10T07:48:51.905Z,7.50
2019-01-10T07:51:20.281Z,7.60
2019-01-10T07:53:48.732Z,7.00
2019-01-10T07:56:17.123Z,7.57
2019-01-10T07:58:45.593Z,6.70
2019-01-10T08:01:13.995Z,6.83
2019-01-10T08:03:42.395Z,7.60
2019-01-10T08:06:10.845Z,7.03
2019-01-10T08:08:39.228Z,7.33
2019-01-10T08:11:07.603Z,7.67
2019-01-10T08:13:35.983Z,7.27
2019-01-10T08:16:04.504Z,7.10
2019-01-10T08:18:32.904Z,6.80
2019-01-10T08:21:01.299Z,6.73
2019-01-10T08:23:29.708Z,6.47
2019-01-10T08:25:58.090Z,6.90
2019-01-10T08:28:26.458Z,6.77
2019-01-10T08:30:54.851Z,6.60
2019-01-10T08:33:23.234Z,6.43
2019-01-10T08:35:51.617Z,6.10
2019-01-10T08:38:21.993Z,7.00
2019-01-10T08:40:50.382Z,6.40
2019-01-10T08:43:20.308Z,6.57
2019-01-10T08:45:48.713Z,6.70
2019-01-10T08:48:17.134Z,7.10
2019-01-10T08:50:45.537Z,6.87
2019-01-10T08:53:13.944Z,6.97
2019-01-10T08:55:42.334Z,6.97
2019-01-10T08:58:10.768Z,6.93
2019-01-10T09:00:39.428Z,7.07
2019-01-10T09:03:07.824Z,6.80
2019-01-10T09:05:36.219Z,6.43
2019-01-10T09:08:04.596Z,7.10
2019-01-10T09:10:33.138Z,6.43
2019-01-10T09:13:01.584Z,7.20
2019-01-10T09:15:34.565Z,7.13
2019-01-10T09:18:00.389Z,6.97
2019-01-10T09:20:28.863Z,7.17
2019-01-10T09:22:57.246Z,6.90
2019-01-10T09:25:25.701Z,7.20
2019-01-10T09:27:54.069Z,6.80
2019-01-10T09:30:22.591Z,7.63
2019-01-10T09:32:51.136Z,7.00
2019-01-10T09:35:19.658Z,7.10
2019-01-10T09:37:48.399Z,8.13
2019-01-10T09:40:19.081Z,7.80
2019-01-10T09:42:47.961Z,7.43
2019-01-10T09:45:19.521Z,8.20
2019-01-10T09:47:47.917Z,8.23
2019-01-10T09:50:18.036Z,8.00
2019-01-10T09:52:46.874Z,9.57
2019-01-10T09:55:15.300Z,9.17
2019-01-10T09:57:43.672Z,9.23
2019-01-10T10:00:18.061Z,9.07
2019-01-10T10:02:46.575Z,8.80
2019-01-10T10:05:15.025Z,8.40
2019-01-10T10:07:44.182Z,8.83
2019-01-10T10:10:15.339Z,9.40
2019-01-10T10:12:43.785Z,8.77
2019-01-10T10:15:12.899Z,9.20
2019-01-10T10:17:42.363Z,9.07
2019-01-10T10:20:16.589Z,9.30
2019-01-10T10:22:45.031Z,8.80
2019-01-10T10:25:13.468Z,9.10
2019-01-10T10:27:41.920Z,7.80
2019-01-10T10:30:19.143Z,8.53
2019-01-10T10:32:47.710Z,8.23
2019-01-10T10:35:16.940Z,8.83
2019-01-10T10:37:45.391Z,8.50
2019-01-10T10:40:16.434Z,9.00
2019-01-10T10:42:44.892Z,9.40
2019-01-10T10:45:15.626Z,9.23
2019-01-10T10:47:44.075Z,8.37
2019-01-10T10:50:15.293Z,9.27
2019-01-10T10:52:43.859Z,8.37
2019-01-10T10:55:12.363Z,7.87
2019-01-10T10:57:40.758Z,9.10
2019-01-10T11:00:12.896Z,8.97
2019-01-10T11:02:41.351Z,8.70
2019-01-10T11:05:12.452Z,8.83
2019-01-10T11:07:42.057Z,8.37
2019-01-10T11:10:18.674Z,9.17
2019-01-10T11:12:48.551Z,7.60
2019-01-10T11:15:17.204Z,8.03
2019-01-10T11:17:45.726Z,8.00
2019-01-10T11:20:17.005Z,8.00
2019-01-10T11:22:45.604Z,7.57
2019-01-10T11:25:16.322Z,7.47
2019-01-10T11:27:44.699Z,7.57
2019-01-10T11:30:20.550Z,6.90
2019-01-10T11:32:48.982Z,7.67
2019-01-10T11:35:17.502Z,7.90
2019-01-10T11:37:45.950Z,7.53
2019-01-10T11:40:17.060Z,7.37
2019-01-10T11:42:45.430Z,7.60
2019-01-10T11:45:16.559Z,7.30
2019-01-10T11:47:45.177Z,9.03
2019-01-10T11:50:15.727Z,7.17
2019-01-10T11:52:44.363Z,7.70
2019-01-10T11:55:15.110Z,7.13
2019-01-10T11:57:44.825Z,6.53
2019-01-10T12:00:16.195Z,6.60
2019-01-10T12:02:44.635Z,6.93
2019-01-10T12:05:13.024Z,6.67
2019-01-10T12:07:41.399Z,7.30
2019-01-10T12:10:11.426Z,7.17
2019-01-10T12:12:39.811Z,7.23
2019-01-10T12:15:12.247Z,7.37
2019-01-10T12:17:40.655Z,7.43
2019-01-10T12:20:12.115Z,7.60
2019-01-10T12:22:40.500Z,7.07
2019-01-10T12:25:11.322Z,7.43
2019-01-10T12:27:39.735Z,8.03
2019-01-10T12:30:14.476Z,7.20
2019-01-10T12:32:42.860Z,7.67
2019-01-10T12:35:12.403Z,8.17
2019-01-10T12:37:40.804Z,7.23
2019-01-10T12:40:12.305Z,7.70
2019-01-10T12:42:40.670Z,7.47
2019-01-10T12:45:13.978Z,7.83
2019-01-10T12:47:42.436Z,7.83
2019-01-10T12:50:19.282Z,7.20
2019-01-10T12:52:47.712Z,6.77
2019-01-10T12:55:17.294Z,7.60
2019-01-10T12:57:45.821Z,6.87
2019-01-10T13:00:17.169Z,7.60
2019-01-10T13:02:45.628Z,7.53
2019-01-10T13:05:14.342Z,8.10
2019-01-10T13:07:42.810Z,8.37
2019-01-10T13:10:16.005Z,9.13
2019-01-10T13:12:44.507Z,8.67
2019-01-10T13:15:17.691Z,9.23
2019-01-10T13:17:46.197Z,10.63
2019-01-10T13:20:15.413Z,10.63
2019-01-10T13:22:43.927Z,10.43
2019-01-10T13:25:15.414Z,11.07
2019-01-10T13:27:43.968Z,11.23
2019-01-10T13:30:24.969Z,10.80
2019-01-10T13:32:53.801Z,11.23
2019-01-10T13:35:23.276Z,10.50
2019-01-10T13:37:51.740Z,10.93
2019-01-10T13:40:20.276Z,10.50
2019-01-10T13:42:49.812Z,11.00
2019-01-10T13:45:18.655Z,10.83
2019-01-10T13:47:49.920Z,10.73
2019-01-10T13:50:20.747Z,11.03
2019-01-10T13:52:54.337Z,11.83
2019-01-10T13:55:31.131Z,10.57
2019-01-10T13:57:59.602Z,10.53
2019-01-10T14:00:35.246Z,9.97
2019-01-10T14:02:59.528Z,10.00
2019-01-10T14:05:28.044Z,10.10
2019-01-10T14:07:56.496Z,10.13
2019-01-10T14:10:25.051Z,10.40
2019-01-10T14:12:53.514Z,9.43
2019-01-10T14:15:27.481Z,9.17
2019-01-10T14:17:55.875Z,9.17
2019-01-10T14:20:24.654Z,10.43
2019-01-10T14:22:53.121Z,11.70
2019-01-10T14:25:21.498Z,13.17
2019-01-10T14:27:49.953Z,11.70
2019-01-10T14:30:23.719Z,12.93
2019-01-10T14:32:52.251Z,12.03
2019-01-10T14:35:21.072Z,12.57
2019-01-10T14:37:49.526Z,12.60
2019-01-10T14:40:18.460Z,12.83
2019-01-10T14:42:45.897Z,13.57
2019-01-10T14:45:18.228Z,13.20
2019-01-10T14:47:46.674Z,11.87
2019-01-10T14:50:17.608Z,12.90
2019-01-10T14:52:45.984Z,12.43
2019-01-10T14:55:14.907Z,13.00
2019-01-10T14:57:43.429Z,11.87
2019-01-10T15:00:17.378Z,11.43
2019-01-10T15:02:45.827Z,10.27
2019-01-10T15:05:14.229Z,11.03
2019-01-10T15:07:42.609Z,12.53
2019-01-10T15:10:11.632Z,13.07
2019-01-10T15:12:40.248Z,13.57
2019-01-10T15:15:14.013Z,13.87
2019-01-10T15:17:42.411Z,13.40
2019-01-10T15:20:16.685Z,13.17
2019-01-10T15:22:45.061Z,12.97
2019-01-10T15:25:13.616Z,11.77
2019-01-10T15:27:42.065Z,11.23
2019-01-10T15:30:16.176Z,10.70
2019-01-10T15:32:46.553Z,11.27
2019-01-10T15:35:15.574Z,11.50
2019-01-10T15:37:44.014Z,11.23
2019-01-10T15:40:15.452Z,10.43
2019-01-10T15:42:43.831Z,9.97
2019-01-10T15:45:12.276Z,9.23
2019-01-10T15:47:40.729Z,11.03
2019-01-10T15:50:15.624Z,9.90
2019-01-10T15:52:44.067Z,9.90
2019-01-10T15:55:14.461Z,10.37
2019-01-10T15:57:43.774Z,9.27
2019-01-10T16:00:22.964Z,10.17
2019-01-10T16:02:51.693Z,10.23
2019-01-10T16:05:20.140Z,9.53
2019-01-10T16:07:48.701Z,9.73
2019-01-10T16:10:18.617Z,9.90
2019-01-10T16:12:47.064Z,10.20
2019-01-10T16:15:18.032Z,10.07
2019-01-10T16:17:46.479Z,9.93
2019-01-10T16:20:15.395Z,10.03
2019-01-10T16:22:43.846Z,9.87
2019-01-10T16:25:14.164Z,10.40
2019-01-10T16:27:42.620Z,10.93
2019-01-10T16:30:27.440Z,10.50
2019-01-10T16:32:55.920Z,10.53
2019-01-10T16:35:24.302Z,10.63
2019-01-10T16:37:52.762Z,10.83
2019-01-10T16:40:23.350Z,11.10
2019-01-10T16:42:51.916Z,11.97
2019-01-10T16:45:22.895Z,11.97
2019-01-10T16:47:51.275Z,11.37
2019-01-10T16:50:19.663Z,11.33
2019-01-10T16:52:48.040Z,11.80
2019-01-10T16:55:28.476Z,12.00
2019-01-10T16:57:58.169Z,11.37
2019-01-10T17:00:29.335Z,12.67
2019-01-10T17:02:58.841Z,12.40
2019-01-10T17:05:27.229Z,10.87
2019-01-10T17:07:56.801Z,12.10
2019-01-10T17:10:28.857Z,11.63
2019-01-10T17:12:58.294Z,12.73
2019-01-10T17:15:27.791Z,12.00
2019-01-10T17:17:56.193Z,11.87
2019-01-10T17:20:25.814Z,12.00
2019-01-10T17:22:54.217Z,12.50
2019-01-10T17:25:22.697Z,14.43
2019-01-10T17:27:52.160Z,13.07
2019-01-10T17:30:25.491Z,12.80
2019-01-10T17:32:55.794Z,13.00
2019-01-10T17:35:27.639Z,13.57
2019-01-10T17:37:56.983Z,12.47
2019-01-10T17:40:25.517Z,12.97
2019-01-10T17:42:54.294Z,13.50
2019-01-10T17:45:29.113Z,13.40
2019-01-10T17:47:57.494Z,13.93
2019-01-10T17:50:25.891Z,13.83
2019-01-10T17:52:54.272Z,13.00
2019-01-10T17:55:22.653Z,13.47
2019-01-10T17:57:51.021Z,13.40
2019-01-10T18:00:28.021Z,12.97
2019-01-10T18:02:56.471Z,13.60
2019-01-10T18:05:24.940Z,13.63
2019-01-10T18:07:53.311Z,12.83
2019-01-10T18:10:22.798Z,13.80
2019-01-10T18:12:51.566Z,13.50
2019-01-10T18:15:24.719Z,13.60
2019-01-10T18:17:53.092Z,13.70
2019-01-10T18:20:30.417Z,13.77
2019-01-10T18:22:58.873Z,13.93
2019-01-10T18:25:27.249Z,15.03
2019-01-10T18:27:57.605Z,13.60
2019-01-10T18:30:25.991Z,13.93
2019-01-10T18:32:54.382Z,13.77
2019-01-10T18:35:26.416Z,12.37
2019-01-10T18:37:53.189Z,11.93
2019-01-10T18:40:23.461Z,12.03
2019-01-10T18:42:51.840Z,10.77
2019-01-10T18:45:26.083Z,11.30
2019-01-10T18:47:57.202Z,11.43
2019-01-10T18:50:25.394Z,10.07
2019-01-10T18:52:53.864Z,9.77
2019-01-10T18:55:22.387Z,10.37
2019-01-10T18:57:50.841Z,11.27
2019-01-10T19:00:28.223Z,10.33
2019-01-10T19:02:57.360Z,10.10
2019-01-10T19:05:27.060Z,10.13
2019-01-10T19:07:55.534Z,10.33
2019-01-10T19:10:24.344Z,9.90
2019-01-10T19:12:52.884Z,9.77
2019-01-10T19:15:21.545Z,9.43
2019-01-10T19:17:49.926Z,9.20
2019-01-10T19:20:20.535Z,10.67
2019-01-10T19:22:49.975Z,9.80
2019-01-10T19:25:18.404Z,9.57
2019-01-10T19:27:47.790Z,8.70
2019-01-10T19:30:24.362Z,8.90
2019-01-10T19:32:52.895Z,9.47
2019-01-10T19:35:23.267Z,11.10
2019-01-10T19:37:51.664Z,9.67
2019-01-10T19:40:21.988Z,9.57
2019-01-10T19:42:52.284Z,10.40
2019-01-10T19:45:22.113Z,8.80
2019-01-10T19:47:50.654Z,9.13
2019-01-10T19:50:21.558Z,10.00
2019-01-10T19:52:50.298Z,9.43
2019-01-10T19:55:19.927Z,10.07
2019-01-10T19:57:48.423Z,9.00
2019-01-10T20:00:28.388Z,9.43
2019-01-10T20:02:56.939Z,9.70
2019-01-10T20:05:27.617Z,9.60
2019-01-10T20:07:55.990Z,9.77
2019-01-10T20:10:24.442Z,9.40
2019-01-10T20:12:52.825Z,9.33
2019-01-10T20:15:21.364Z,9.63
2019-01-10T20:17:50.055Z,9.63
2019-01-10T20:20:33.023Z,8.90
2019-01-10T20:23:01.473Z,9.37
2019-01-10T20:25:29.931Z,9.43
2019-01-10T20:27:58.383Z,9.33
2019-01-10T20:30:26.902Z,9.30
2019-01-10T20:32:55.335Z,8.13
2019-01-10T20:35:23.965Z,9.57
2019-01-10T20:37:52.338Z,10.27
2019-01-10T20:40:20.890Z,10.30
2019-01-10T20:42:49.436Z,9.90
2019-01-10T20:45:17.890Z,9.33
2019-01-10T20:47:49.552Z,9.43
2019-01-10T20:50:18.285Z,10.50
2019-01-10T20:52:46.732Z,9.03
2019-01-10T20:55:16.858Z,9.47
2019-01-10T20:57:45.308Z,10.00
2019-01-10T21:00:21.505Z,9.40
2019-01-10T21:02:50.421Z,9.97
2019-01-10T21:05:18.891Z,10.13
2019-01-10T21:07:49.083Z,10.47
2019-01-10T21:10:20.116Z,10.13
2019-01-10T21:12:49.150Z,10.47
2019-01-10T21:15:23.186Z,10.17
2019-01-10T21:17:53.654Z,9.33
2019-01-10T21:20:22.021Z,9.53
2019-01-10T21:22:51.900Z,9.00
2019-01-10T21:25:20.363Z,10.50
2019-01-10T21:27:50.543Z,9.37
2019-01-10T21:30:21.352Z,8.90
2019-01-10T21:32:50.209Z,9.10
2019-01-10T21:35:22.435Z,9.33
2019-01-10T21:38:06.934Z,9.70
2019-01-10T21:40:43.632Z,9.10
2019-01-10T21:43:21.263Z,8.40
2019-01-10T21:45:50.207Z,9.00
2019-01-10T21:48:26.116Z,8.67
2019-01-10T21:50:54.522Z,9.20
2019-01-10T21:53:22.908Z,9.17
2019-01-10T21:55:54.250Z,8.53
2019-01-10T21:58:22.708Z,8.40
2019-01-10T22:00:51.247Z,8.33
2019-01-10T22:03:19.640Z,9.30
2019-01-10T22:05:48.484Z,9.20
2019-01-10T22:08:16.868Z,8.67
2019-01-10T22:10:45.495Z,9.37
2019-01-10T22:13:15.854Z,8.47
2019-01-10T22:15:44.243Z,9.70
2019-01-10T22:18:12.626Z,9.67
2019-01-10T22:20:41.010Z,9.10
2019-01-10T22:23:09.391Z,9.10
2019-01-10T22:25:37.769Z,8.63
2019-01-10T22:28:06.237Z,8.67
2019-01-10T22:30:34.848Z,9.03
2019-01-10T22:33:03.227Z,9.37
2019-01-10T22:35:32.605Z,9.13
2019-01-10T22:38:00.970Z,9.23
2019-01-10T22:40:32.425Z,9.87
2019-01-10T22:43:00.870Z,9.87
2019-01-10T22:45:29.254Z,9.80
2019-01-10T22:47:57.629Z,10.30
2019-01-10T22:50:26.075Z,9.93
2019-01-10T22:52:54.464Z,11.03
2019-01-10T22:55:24.743Z,10.53
2019-01-10T22:57:54.062Z,11.10
2019-01-10T23:00:56.952Z,10.13
2019-01-10T23:03:25.424Z,9.93
2019-01-10T23:05:53.863Z,11.03
2019-01-10T23:08:22.303Z,10.67
2019-01-10T23:11:00.603Z,10.30
2019-01-10T23:13:28.986Z,10.77
2019-01-10T23:15:57.364Z,10.87
2019-01-10T23:18:25.761Z,10.63
2019-01-10T23:20:55.974Z,10.13
2019-01-10T23:23:24.349Z,11.53
2019-01-10T23:25:53.676Z,10.93
2019-01-10T23:28:22.396Z,11.20
2019-01-10T23:30:55.970Z,11.00
2019-01-10T23:33:25.481Z,10.80
2019-01-10T23:36:03.577Z,11.10
2019-01-10T23:38:31.965Z,13.30
2019-01-10T23:41:00.891Z,10.90
2019-01-10T23:43:29.532Z,11.23
2019-01-10T23:45:58.057Z,10.73
2019-01-10T23:48:26.571Z,10.37
2019-01-10T23:50:55.094Z,10.43
2019-01-10T23:53:23.542Z,11.17
2019-01-10T23:55:52.180Z,10.53
2019-01-10T23:58:20.556Z,10.67
